createdAt,value
2018-03-31T00:00:36.492Z,78.75
2018-03-31T00:01:36.506Z,79.27
2018-03-31T00:02:36.525Z,78.22
2018-03-31T00:03:36.543Z,78.03
2018-03-31T00:04:36.566Z,77.74
2018-03-31T00:05:36.586Z,77.83
2018-03-31T00:06:36.608Z,77.17
2018-03-31T00:07:36.616Z,77.55
2018-03-31T00:08:36.672Z,77.55
2018-03-31T00:09:36.655Z,77.26
2018-03-31T00:10:36.677Z,77.45
2018-03-31T00:11:36.697Z,78.12
2018-03-31T00:12:36.725Z,77.93
2018-03-31T00:13:36.752Z,77.74
2018-03-31T00:14:36.747Z,77.93
2018-03-31T00:15:36.764Z,78.41
2018-03-31T00:16:36.788Z,78.59
2018-03-31T00:17:36.817Z,78.03
2018-03-31T00:18:36.832Z,78.22
2018-03-31T00:19:36.838Z,78.31
2018-03-31T00:20:36.864Z,78.12
2018-03-31T00:21:36.876Z,78.12
2018-03-31T00:22:36.904Z,78.12
2018-03-31T00:23:36.918Z,78.12
2018-03-31T00:24:36.935Z,78.50
2018-03-31T00:25:36.951Z,78.50
2018-03-31T00:26:36.968Z,78.59
2018-03-31T00:27:36.986Z,78.46
2018-03-31T00:28:37.005Z,78.78
2018-03-31T00:29:37.024Z,78.85
2018-03-31T00:30:37.047Z,77.93
2018-03-31T00:31:37.066Z,77.83
2018-03-31T00:32:37.076Z,78.03
2018-03-31T00:33:37.095Z,78.12
2018-03-31T00:34:37.116Z,77.45
2018-03-31T00:35:37.128Z,78.03
2018-03-31T00:36:37.155Z,77.45
2018-03-31T00:37:37.169Z,77.17
2018-03-31T00:38:37.183Z,76.98
2018-03-31T00:39:37.206Z,76.88
2018-03-31T00:40:37.222Z,77.26
2018-03-31T00:41:37.240Z,77.55
2018-03-31T00:42:37.265Z,77.07
2018-03-31T00:43:37.278Z,77.26
2018-03-31T00:44:37.295Z,76.98
2018-03-31T00:45:37.322Z,76.88
2018-03-31T00:46:37.332Z,76.88
2018-03-31T00:47:37.347Z,76.79
2018-03-31T00:48:37.382Z,76.88
2018-03-31T00:49:37.393Z,76.21
2018-03-31T00:50:37.411Z,76.40
2018-03-31T00:51:37.436Z,76.65
2018-03-31T00:52:37.443Z,77.98
2018-03-31T00:53:37.465Z,77.98
2018-03-31T00:54:37.482Z,77.93
2018-03-31T00:55:37.494Z,76.59
2018-03-31T00:56:37.512Z,76.79
2018-03-31T00:57:37.543Z,76.79
2018-03-31T00:58:37.556Z,76.69
2018-03-31T00:59:37.571Z,76.59
2018-03-31T01:00:37.593Z,76.31
2018-03-31T01:01:37.609Z,76.40
2018-03-31T01:02:37.628Z,76.69
2018-03-31T01:03:37.652Z,76.31
2018-03-31T01:04:37.668Z,76.79
2018-03-31T01:05:37.685Z,76.40
2018-03-31T01:06:37.712Z,76.69
2018-03-31T01:07:37.720Z,76.50
2018-03-31T01:08:37.742Z,76.21
2018-03-31T01:09:37.759Z,76.21
2018-03-31T01:10:37.774Z,76.88
2018-03-31T01:11:37.794Z,76.88
2018-03-31T01:12:37.825Z,76.21
2018-03-31T01:13:37.828Z,76.98
2018-03-31T01:14:37.848Z,76.79
2018-03-31T01:15:37.872Z,77.89
2018-03-31T01:16:37.889Z,78.65
2018-03-31T01:17:37.903Z,79.03
2018-03-31T01:18:37.921Z,79.41
2018-03-31T01:19:37.942Z,78.46
2018-03-31T01:20:37.959Z,77.42
2018-03-31T01:21:37.980Z,77.26
2018-03-31T01:22:37.994Z,77.32
2018-03-31T01:23:38.013Z,77.17
2018-03-31T01:24:38.033Z,77.22
2018-03-31T01:25:38.051Z,77.89
2018-03-31T01:26:38.069Z,77.80
2018-03-31T01:27:38.097Z,77.26
2018-03-31T01:28:38.107Z,77.17
2018-03-31T01:29:38.143Z,76.88
2018-03-31T01:30:38.147Z,77.26
2018-03-31T01:31:38.162Z,77.13
2018-03-31T01:32:38.179Z,77.80
2018-03-31T01:33:38.200Z,77.74
2018-03-31T01:34:38.221Z,77.17
2018-03-31T01:35:38.244Z,76.79
2018-03-31T01:36:38.254Z,76.40
2018-03-31T01:37:38.274Z,76.40
2018-03-31T01:38:38.290Z,76.40
2018-03-31T01:39:38.313Z,77.13
2018-03-31T01:40:38.335Z,77.80
2018-03-31T01:41:38.350Z,78.61
2018-03-31T01:42:38.368Z,79.57
2018-03-31T01:43:38.393Z,80.52
2018-03-31T01:44:38.400Z,79.75
2018-03-31T01:45:38.421Z,79.13
2018-03-31T01:46:38.440Z,78.37
2018-03-31T01:47:38.457Z,77.80
2018-03-31T01:48:38.480Z,78.37
2018-03-31T01:49:38.498Z,78.85
2018-03-31T01:50:38.515Z,77.70
2018-03-31T01:51:38.542Z,77.80
2018-03-31T01:52:38.550Z,77.51
2018-03-31T01:53:38.568Z,77.26
2018-03-31T01:54:38.586Z,76.75
2018-03-31T01:55:38.608Z,77.03
2018-03-31T01:56:38.621Z,76.59
2018-03-31T01:57:38.645Z,76.75
2018-03-31T01:58:38.766Z,76.94
2018-03-31T01:59:38.691Z,76.88
2018-03-31T02:00:38.708Z,76.88
2018-03-31T02:01:38.735Z,76.69
2018-03-31T02:02:38.737Z,76.65
2018-03-31T02:03:38.753Z,76.46
2018-03-31T02:04:38.769Z,76.56
2018-03-31T02:05:38.787Z,76.56
2018-03-31T02:06:38.820Z,76.94
2018-03-31T02:07:38.830Z,76.75
2018-03-31T02:08:38.842Z,76.37
2018-03-31T02:09:38.864Z,76.84
2018-03-31T02:10:38.912Z,76.88
2018-03-31T02:11:38.898Z,76.79
2018-03-31T02:12:38.915Z,76.75
2018-03-31T02:13:38.936Z,76.56
2018-03-31T02:14:38.954Z,76.75
2018-03-31T02:15:38.977Z,76.94
2018-03-31T02:16:38.995Z,77.70
2018-03-31T02:17:39.006Z,78.37
2018-03-31T02:18:39.029Z,78.75
2018-03-31T02:19:39.046Z,79.19
2018-03-31T02:20:39.066Z,78.75
2018-03-31T02:21:39.082Z,78.75
2018-03-31T02:22:39.102Z,79.47
2018-03-31T02:23:39.128Z,78.94
2018-03-31T02:24:39.142Z,78.90
2018-03-31T02:25:39.164Z,79.66
2018-03-31T02:26:39.182Z,79.19
2018-03-31T02:27:39.192Z,79.32
2018-03-31T02:28:39.214Z,79.28
2018-03-31T02:29:39.231Z,79.75
2018-03-31T02:30:39.261Z,79.85
2018-03-31T02:31:39.270Z,79.13
2018-03-31T02:32:39.284Z,78.17
2018-03-31T02:33:39.305Z,77.51
2018-03-31T02:34:39.325Z,77.70
2018-03-31T02:35:39.342Z,77.80
2018-03-31T02:36:39.358Z,77.51
2018-03-31T02:37:39.388Z,77.42
2018-03-31T02:38:39.397Z,77.51
2018-03-31T02:39:39.413Z,76.94
2018-03-31T02:40:39.428Z,76.94
2018-03-31T02:41:39.448Z,76.65
2018-03-31T02:42:39.472Z,77.42
2018-03-31T02:43:39.485Z,78.46
2018-03-31T02:44:39.503Z,77.98
2018-03-31T02:45:39.522Z,77.22
2018-03-31T02:46:39.546Z,77.13
2018-03-31T02:47:39.595Z,76.75
2018-03-31T02:48:39.589Z,76.84
2018-03-31T02:49:39.605Z,76.65
2018-03-31T02:50:39.614Z,76.56
2018-03-31T02:51:39.637Z,76.75
2018-03-31T02:52:39.648Z,76.08
2018-03-31T02:53:39.670Z,76.56
2018-03-31T02:54:39.688Z,76.56
2018-03-31T02:55:39.707Z,76.65
2018-03-31T02:56:39.724Z,76.84
2018-03-31T02:57:39.744Z,76.75
2018-03-31T02:58:39.769Z,76.84
2018-03-31T02:59:39.807Z,76.27
2018-03-31T03:00:39.794Z,76.65
2018-03-31T03:01:39.816Z,76.84
2018-03-31T03:02:39.840Z,76.75
2018-03-31T03:03:39.849Z,76.94
2018-03-31T03:04:39.867Z,76.94
2018-03-31T03:05:39.901Z,77.22
2018-03-31T03:06:39.906Z,77.98
2018-03-31T03:07:39.927Z,78.14
2018-03-31T03:08:39.951Z,78.46
2018-03-31T03:09:39.962Z,77.51
2018-03-31T03:10:39.983Z,77.03
2018-03-31T03:11:40.013Z,77.42
2018-03-31T03:12:40.016Z,76.94
2018-03-31T03:13:40.034Z,77.51
2018-03-31T03:14:40.062Z,77.66
2018-03-31T03:15:40.092Z,79.19
2018-03-31T03:16:40.107Z,78.80
2018-03-31T03:17:40.114Z,79.28
2018-03-31T03:18:40.125Z,80.04
2018-03-31T03:19:40.200Z,80.52
2018-03-31T03:20:40.162Z,80.47
2018-03-31T03:21:40.176Z,80.61
2018-03-31T03:22:40.216Z,79.09
2018-03-31T03:23:40.223Z,78.46
2018-03-31T03:24:40.236Z,77.61
2018-03-31T03:25:40.258Z,77.89
2018-03-31T03:26:40.271Z,77.61
2018-03-31T03:27:40.288Z,77.61
2018-03-31T03:28:40.308Z,77.32
2018-03-31T03:29:40.330Z,77.51
2018-03-31T03:30:40.348Z,77.22
2018-03-31T03:31:40.366Z,77.32
2018-03-31T03:32:40.382Z,77.32
2018-03-31T03:33:40.415Z,77.51
2018-03-31T03:34:40.416Z,77.42
2018-03-31T03:35:40.440Z,77.61
2018-03-31T03:36:40.456Z,77.51
2018-03-31T03:37:40.471Z,77.13
2018-03-31T03:38:40.490Z,77.03
2018-03-31T03:39:40.533Z,77.13
2018-03-31T03:40:40.545Z,78.33
2018-03-31T03:41:40.548Z,78.04
2018-03-31T03:42:40.575Z,78.04
2018-03-31T03:43:40.578Z,77.89
2018-03-31T03:44:40.605Z,77.89
2018-03-31T03:45:40.623Z,77.51
2018-03-31T03:46:40.637Z,77.89
2018-03-31T03:47:40.651Z,76.94
2018-03-31T03:48:40.691Z,77.95
2018-03-31T03:49:40.694Z,78.14
2018-03-31T03:50:40.714Z,78.04
2018-03-31T03:51:40.724Z,78.08
2018-03-31T03:52:40.738Z,77.61
2018-03-31T03:53:40.761Z,77.70
2018-03-31T03:54:40.778Z,77.70
2018-03-31T03:55:40.801Z,77.95
2018-03-31T03:56:40.814Z,78.71
2018-03-31T03:57:40.832Z,78.56
2018-03-31T03:58:40.851Z,78.71
2018-03-31T03:59:40.870Z,78.37
2018-03-31T04:00:40.898Z,78.14
2018-03-31T04:01:40.902Z,77.76
2018-03-31T04:02:40.931Z,77.85
2018-03-31T04:03:40.949Z,77.76
2018-03-31T04:04:40.960Z,77.98
2018-03-31T04:05:40.977Z,77.61
2018-03-31T04:06:40.997Z,77.76
2018-03-31T04:07:41.015Z,78.04
2018-03-31T04:08:41.034Z,77.76
2018-03-31T04:09:41.056Z,78.23
2018-03-31T04:10:41.073Z,78.14
2018-03-31T04:11:41.097Z,77.95
2018-03-31T04:12:41.104Z,78.33
2018-03-31T04:13:41.125Z,77.98
2018-03-31T04:14:41.140Z,78.33
2018-03-31T04:15:41.159Z,78.61
2018-03-31T04:16:41.173Z,78.42
2018-03-31T04:17:41.193Z,78.52
2018-03-31T04:18:41.240Z,78.42
2018-03-31T04:19:41.283Z,78.04
2018-03-31T04:20:41.275Z,77.95
2018-03-31T04:21:41.307Z,78.61
2018-03-31T04:22:41.289Z,78.90
2018-03-31T04:23:41.298Z,78.90
2018-03-31T04:24:41.330Z,78.42
2018-03-31T04:25:41.340Z,78.33
2018-03-31T04:26:41.382Z,78.52
2018-03-31T04:27:41.374Z,78.33
2018-03-31T04:28:41.391Z,78.33
2018-03-31T04:29:41.414Z,78.52
2018-03-31T04:30:41.425Z,78.14
2018-03-31T04:31:41.444Z,78.14
2018-03-31T04:32:41.465Z,78.52
2018-03-31T04:33:41.486Z,78.71
2018-03-31T04:34:41.498Z,78.52
2018-03-31T04:35:41.512Z,78.14
2018-03-31T04:36:41.534Z,78.23
2018-03-31T04:37:41.550Z,78.71
2018-03-31T04:38:41.571Z,78.52
2018-03-31T04:39:41.582Z,78.80
2018-03-31T04:40:41.600Z,78.42
2018-03-31T04:41:41.619Z,78.80
2018-03-31T04:42:41.642Z,78.61
2018-03-31T04:43:41.662Z,78.90
2018-03-31T04:44:41.677Z,78.71
2018-03-31T04:45:41.692Z,78.42
2018-03-31T04:46:41.711Z,78.71
2018-03-31T04:47:41.728Z,78.61
2018-03-31T04:48:41.744Z,78.61
2018-03-31T04:49:41.774Z,78.71
2018-03-31T04:50:41.777Z,79.19
2018-03-31T04:51:41.798Z,78.42
2018-03-31T04:52:41.866Z,78.80
2018-03-31T04:53:41.831Z,78.61
2018-03-31T04:54:41.862Z,78.90
2018-03-31T04:55:41.869Z,79.19
2018-03-31T04:56:41.882Z,78.99
2018-03-31T04:57:41.910Z,78.90
2018-03-31T04:58:41.925Z,78.90
2018-03-31T04:59:41.940Z,79.38
2018-03-31T05:00:41.952Z,79.28
2018-03-31T05:01:41.975Z,79.38
2018-03-31T05:02:42.005Z,79.28
2018-03-31T05:03:42.008Z,79.28
2018-03-31T05:04:42.030Z,79.19
2018-03-31T05:05:42.051Z,78.90
2018-03-31T05:06:42.068Z,79.19
2018-03-31T05:07:42.082Z,79.47
2018-03-31T05:08:42.102Z,79.09
2018-03-31T05:09:42.121Z,78.80
2018-03-31T05:10:42.133Z,78.90
2018-03-31T05:11:42.150Z,78.99
2018-03-31T05:12:42.167Z,78.61
2018-03-31T05:13:42.189Z,78.99
2018-03-31T05:14:42.209Z,78.90
2018-03-31T05:15:42.218Z,78.90
2018-03-31T05:16:42.243Z,78.42
2018-03-31T05:17:42.284Z,78.33
2018-03-31T05:18:42.273Z,78.61
2018-03-31T05:19:42.289Z,78.42
2018-03-31T05:20:42.305Z,78.71
2018-03-31T05:21:42.325Z,78.90
2018-03-31T05:22:42.349Z,78.90
2018-03-31T05:23:42.363Z,78.90
2018-03-31T05:24:42.381Z,78.99
2018-03-31T05:25:42.395Z,78.80
2018-03-31T05:26:42.417Z,78.99
2018-03-31T05:27:42.438Z,79.09
2018-03-31T05:28:42.443Z,78.80
2018-03-31T05:29:42.462Z,78.71
2018-03-31T05:30:42.489Z,78.90
2018-03-31T05:31:42.500Z,78.71
2018-03-31T05:32:42.515Z,78.61
2018-03-31T05:33:42.535Z,78.80
2018-03-31T05:34:42.553Z,78.61
2018-03-31T05:35:42.577Z,78.90
2018-03-31T05:36:42.588Z,78.90
2018-03-31T05:37:42.607Z,78.99
2018-03-31T05:38:42.622Z,78.80
2018-03-31T05:39:42.643Z,79.19
2018-03-31T05:40:42.666Z,79.28
2018-03-31T05:41:42.699Z,78.71
2018-03-31T05:42:42.694Z,78.52
2018-03-31T05:43:42.713Z,78.80
2018-03-31T05:44:42.732Z,78.90
2018-03-31T05:45:42.748Z,78.71
2018-03-31T05:46:42.772Z,78.33
2018-03-31T05:47:42.786Z,78.90
2018-03-31T05:48:42.798Z,78.99
2018-03-31T05:49:42.887Z,78.42
2018-03-31T05:50:42.844Z,78.61
2018-03-31T05:51:42.855Z,78.99
2018-03-31T05:52:42.869Z,78.71
2018-03-31T05:53:42.901Z,78.71
2018-03-31T05:54:42.905Z,79.19
2018-03-31T05:55:42.927Z,79.28
2018-03-31T05:56:42.958Z,78.90
2018-03-31T05:57:42.965Z,78.61
2018-03-31T05:58:42.998Z,79.52
2018-03-31T05:59:43.013Z,79.19
2018-03-31T06:00:43.024Z,79.05
2018-03-31T06:01:43.032Z,80.57
2018-03-31T06:02:43.118Z,80.38
2018-03-31T06:03:43.068Z,79.85
2018-03-31T06:04:43.082Z,79.81
2018-03-31T06:05:43.109Z,80.95
2018-03-31T06:06:43.121Z,81.81
2018-03-31T06:07:43.136Z,81.71
2018-03-31T06:08:43.165Z,81.62
2018-03-31T06:09:43.177Z,80.57
2018-03-31T06:10:43.193Z,79.57
2018-03-31T06:11:43.212Z,79.38
2018-03-31T06:12:43.223Z,78.90
2018-03-31T06:13:43.243Z,79.09
2018-03-31T06:14:43.267Z,78.71
2018-03-31T06:15:43.275Z,79.09
2018-03-31T06:16:43.293Z,78.71
2018-03-31T06:17:43.321Z,78.90
2018-03-31T06:18:43.332Z,78.80
2018-03-31T06:19:43.360Z,78.80
2018-03-31T06:20:43.372Z,78.90
2018-03-31T06:21:43.381Z,78.42
2018-03-31T06:22:43.400Z,78.42
2018-03-31T06:23:43.418Z,78.42
2018-03-31T06:24:43.434Z,78.14
2018-03-31T06:25:43.463Z,78.23
2018-03-31T06:26:43.470Z,77.95
2018-03-31T06:27:43.498Z,78.71
2018-03-31T06:28:43.514Z,78.71
2018-03-31T06:29:43.524Z,78.61
2018-03-31T06:30:43.542Z,79.28
2018-03-31T06:31:43.560Z,78.71
2018-03-31T06:32:43.582Z,79.47
2018-03-31T06:33:43.593Z,79.38
2018-03-31T06:34:43.610Z,79.94
2018-03-31T06:35:43.628Z,79.57
2018-03-31T06:36:43.647Z,80.29
2018-03-31T06:37:43.670Z,79.47
2018-03-31T06:38:43.684Z,79.09
2018-03-31T06:39:43.696Z,78.90
2018-03-31T06:40:43.722Z,78.80
2018-03-31T06:41:43.744Z,78.42
2018-03-31T06:42:43.758Z,79.09
2018-03-31T06:43:43.771Z,78.52
2018-03-31T06:44:43.789Z,78.52
2018-03-31T06:45:43.808Z,78.14
2018-03-31T06:46:43.899Z,77.42
2018-03-31T06:47:43.839Z,78.71
2018-03-31T06:48:43.903Z,78.80
2018-03-31T06:49:43.886Z,78.52
2018-03-31T06:50:43.941Z,78.61
2018-03-31T06:51:43.926Z,79.47
2018-03-31T06:52:44.065Z,79.28
2018-03-31T06:53:43.950Z,80.23
2018-03-31T06:54:44.116Z,80.19
2018-03-31T06:55:43.986Z,80.19
2018-03-31T06:56:44.074Z,79.75
2018-03-31T06:57:44.021Z,79.19
2018-03-31T06:58:44.053Z,78.61
2018-03-31T06:59:44.060Z,78.90
2018-03-31T07:00:44.086Z,78.71
2018-03-31T07:01:44.095Z,78.52
2018-03-31T07:02:44.121Z,78.42
2018-03-31T07:03:44.146Z,78.71
2018-03-31T07:04:44.144Z,78.71
2018-03-31T07:05:44.180Z,79.28
2018-03-31T07:06:44.189Z,79.19
2018-03-31T07:07:44.199Z,79.19
2018-03-31T07:08:44.222Z,78.42
2018-03-31T07:09:44.237Z,77.66
2018-03-31T07:10:44.258Z,78.99
2018-03-31T07:11:44.277Z,79.09
2018-03-31T07:12:44.292Z,79.28
2018-03-31T07:13:44.306Z,78.80
2018-03-31T07:14:44.326Z,78.42
2018-03-31T07:15:44.378Z,78.14
2018-03-31T07:16:44.370Z,79.09
2018-03-31T07:17:44.387Z,78.71
2018-03-31T07:18:44.403Z,78.94
2018-03-31T07:19:44.428Z,78.08
2018-03-31T07:20:44.435Z,77.95
2018-03-31T07:21:44.451Z,78.61
2018-03-31T07:22:44.471Z,77.70
2018-03-31T07:23:44.489Z,77.22
2018-03-31T07:24:44.508Z,78.17
2018-03-31T07:25:44.530Z,77.70
2018-03-31T07:26:44.545Z,76.94
2018-03-31T07:27:44.558Z,77.13
2018-03-31T07:28:44.579Z,75.99
2018-03-31T07:29:44.595Z,75.55
2018-03-31T07:30:44.621Z,76.08
2018-03-31T07:31:44.641Z,77.03
2018-03-31T07:32:44.653Z,76.18
2018-03-31T07:33:44.669Z,76.37
2018-03-31T07:34:44.695Z,76.08
2018-03-31T07:35:44.706Z,76.65
2018-03-31T07:36:44.719Z,76.37
2018-03-31T07:37:44.742Z,76.94
2018-03-31T07:38:44.782Z,77.03
2018-03-31T07:39:44.774Z,76.08
2018-03-31T07:40:44.827Z,76.08
2018-03-31T07:41:44.816Z,74.94
2018-03-31T07:42:44.831Z,74.98
2018-03-31T07:43:44.846Z,74.84
2018-03-31T07:44:44.867Z,74.12
2018-03-31T07:45:44.887Z,73.83
2018-03-31T07:46:44.916Z,73.55
2018-03-31T07:47:44.928Z,74.31
2018-03-31T07:48:44.962Z,73.65
2018-03-31T07:49:44.960Z,73.65
2018-03-31T07:50:44.980Z,72.97
2018-03-31T07:51:45.004Z,72.72
2018-03-31T07:52:45.020Z,72.97
2018-03-31T07:53:45.036Z,73.36
2018-03-31T07:54:45.058Z,73.55
2018-03-31T07:55:45.070Z,73.65
2018-03-31T07:56:45.100Z,73.36
2018-03-31T07:57:45.114Z,72.12
2018-03-31T07:58:45.129Z,72.88
2018-03-31T07:59:45.146Z,72.97
2018-03-31T08:00:45.165Z,72.21
2018-03-31T08:01:45.184Z,71.64
2018-03-31T08:02:45.210Z,70.92
2018-03-31T08:03:45.219Z,70.34
2018-03-31T08:04:45.295Z,70.88
2018-03-31T08:05:45.258Z,71.01
2018-03-31T08:06:45.272Z,71.26
2018-03-31T08:07:45.291Z,70.40
2018-03-31T08:08:45.306Z,71.07
2018-03-31T08:09:45.334Z,70.25
2018-03-31T08:10:45.350Z,68.98
2018-03-31T08:11:45.366Z,68.78
2018-03-31T08:12:45.387Z,68.78
2018-03-31T08:13:45.408Z,68.30
2018-03-31T08:14:45.426Z,67.74
2018-03-31T08:15:45.439Z,67.83
2018-03-31T08:16:45.506Z,67.55
2018-03-31T08:17:45.530Z,67.16
2018-03-31T08:18:45.500Z,67.10
2018-03-31T08:19:45.519Z,66.05
2018-03-31T08:20:45.542Z,65.48
2018-03-31T08:21:45.560Z,65.96
2018-03-31T08:22:45.577Z,66.02
2018-03-31T08:23:45.596Z,67.45
2018-03-31T08:24:45.620Z,66.88
2018-03-31T08:25:45.628Z,67.20
2018-03-31T08:26:45.655Z,66.40
2018-03-31T08:27:45.685Z,65.86
2018-03-31T08:28:45.712Z,65.39
2018-03-31T08:29:45.713Z,65.00
2018-03-31T08:30:45.775Z,65.29
2018-03-31T08:31:45.752Z,65.92
2018-03-31T08:32:45.768Z,66.50
2018-03-31T08:33:45.788Z,66.40
2018-03-31T08:34:45.815Z,66.53
2018-03-31T08:35:45.824Z,66.05
2018-03-31T08:36:45.837Z,66.44
2018-03-31T08:37:45.874Z,66.34
2018-03-31T08:38:45.883Z,65.39
2018-03-31T08:39:45.898Z,65.48
2018-03-31T08:40:45.924Z,65.77
2018-03-31T08:41:46.003Z,65.39
2018-03-31T08:42:45.955Z,65.67
2018-03-31T08:43:45.987Z,65.58
2018-03-31T08:44:45.993Z,64.81
2018-03-31T08:45:46.014Z,64.62
2018-03-31T08:46:46.037Z,64.34
2018-03-31T08:47:46.063Z,64.34
2018-03-31T08:48:46.080Z,63.89
2018-03-31T08:49:46.096Z,63.51
2018-03-31T08:50:46.110Z,63.42
2018-03-31T08:51:46.129Z,63.80
2018-03-31T08:52:46.148Z,63.80
2018-03-31T08:53:46.195Z,63.89
2018-03-31T08:54:46.192Z,64.37
2018-03-31T08:55:46.212Z,64.18
2018-03-31T08:56:46.241Z,63.42
2018-03-31T08:57:46.241Z,64.05
2018-03-31T08:58:46.262Z,64.05
2018-03-31T08:59:46.286Z,64.05
2018-03-31T09:00:46.306Z,64.15
2018-03-31T09:01:46.322Z,63.67
2018-03-31T09:02:46.349Z,63.48
2018-03-31T09:03:46.389Z,64.34
2018-03-31T09:04:46.386Z,64.34
2018-03-31T09:05:46.473Z,63.67
2018-03-31T09:06:46.443Z,63.57
2018-03-31T09:07:46.442Z,62.72
2018-03-31T09:08:46.456Z,62.46
2018-03-31T09:09:46.475Z,61.32
2018-03-31T09:10:46.513Z,60.08
2018-03-31T09:11:46.517Z,59.48
2018-03-31T09:12:46.543Z,60.24
2018-03-31T09:13:46.626Z,59.95
2018-03-31T09:14:46.580Z,60.08
2018-03-31T09:15:46.602Z,60.05
2018-03-31T09:16:46.659Z,60.52
2018-03-31T09:17:46.632Z,61.00
2018-03-31T09:18:46.659Z,61.57
2018-03-31T09:19:46.677Z,61.67
2018-03-31T09:20:46.700Z,61.51
2018-03-31T09:21:46.715Z,60.75
2018-03-31T09:22:46.735Z,60.08
2018-03-31T09:23:46.748Z,59.41
2018-03-31T09:24:46.777Z,58.75
2018-03-31T09:25:46.794Z,57.70
2018-03-31T09:26:46.816Z,55.69
2018-03-31T09:27:46.834Z,54.48
2018-03-31T09:28:46.849Z,53.81
2018-03-31T09:29:46.885Z,53.31
2018-03-31T09:30:46.888Z,52.64
2018-03-31T09:31:46.918Z,51.78
2018-03-31T09:32:46.924Z,52.26
2018-03-31T09:33:46.943Z,52.57
2018-03-31T09:34:46.969Z,52.38
2018-03-31T09:35:46.999Z,51.90
2018-03-31T09:36:47.012Z,52.09
2018-03-31T09:37:47.027Z,51.83
2018-03-31T09:38:47.048Z,52.50
2018-03-31T09:39:47.072Z,51.83
2018-03-31T09:40:47.086Z,52.50
2018-03-31T09:41:47.104Z,52.22
2018-03-31T09:42:47.126Z,53.27
2018-03-31T09:43:47.144Z,52.40
2018-03-31T09:44:47.172Z,52.69
2018-03-31T09:45:47.194Z,52.79
2018-03-31T09:46:47.326Z,52.88
2018-03-31T09:47:47.232Z,52.31
2018-03-31T09:48:47.247Z,52.86
2018-03-31T09:49:47.273Z,53.05
2018-03-31T09:50:47.284Z,52.57
2018-03-31T09:51:47.308Z,52.76
2018-03-31T09:52:47.324Z,52.59
2018-03-31T09:53:47.351Z,52.12
2018-03-31T09:54:47.366Z,51.81
2018-03-31T09:55:47.395Z,52.57
2018-03-31T09:56:47.430Z,52.67
2018-03-31T09:57:47.431Z,52.48
2018-03-31T09:58:47.461Z,52.48
2018-03-31T09:59:47.475Z,51.83
2018-03-31T10:00:47.502Z,50.47
2018-03-31T10:01:47.521Z,48.21
2018-03-31T10:02:47.631Z,46.18
2018-03-31T10:03:47.558Z,45.70
2018-03-31T10:04:47.578Z,46.27
2018-03-31T10:05:47.590Z,46.47
2018-03-31T10:06:47.635Z,45.89
2018-03-31T10:07:47.644Z,45.03
2018-03-31T10:08:47.669Z,44.56
2018-03-31T10:09:47.674Z,45.22
2018-03-31T10:10:47.698Z,45.99
2018-03-31T10:11:47.720Z,46.01
2018-03-31T10:12:47.735Z,45.89
2018-03-31T10:13:47.759Z,45.61
2018-03-31T10:14:47.787Z,45.92
2018-03-31T10:15:47.821Z,46.01
2018-03-31T10:16:47.823Z,45.79
2018-03-31T10:17:47.841Z,46.27
2018-03-31T10:18:47.875Z,46.01
2018-03-31T10:19:47.889Z,46.01
2018-03-31T10:20:47.913Z,46.30
2018-03-31T10:21:47.923Z,45.92
2018-03-31T10:22:47.951Z,45.06
2018-03-31T10:23:47.973Z,45.43
2018-03-31T10:24:47.983Z,45.92
2018-03-31T10:25:48.002Z,46.20
2018-03-31T10:26:48.030Z,44.98
2018-03-31T10:27:48.065Z,44.67
2018-03-31T10:28:48.062Z,44.01
2018-03-31T10:29:48.084Z,43.43
2018-03-31T10:30:48.114Z,43.84
2018-03-31T10:31:48.138Z,44.01
2018-03-31T10:32:48.156Z,43.62
2018-03-31T10:33:48.170Z,43.72
2018-03-31T10:34:48.208Z,42.97
2018-03-31T10:35:48.209Z,42.21
2018-03-31T10:36:48.229Z,42.86
2018-03-31T10:37:48.248Z,43.91
2018-03-31T10:38:48.270Z,44.01
2018-03-31T10:39:48.297Z,44.10
2018-03-31T10:40:48.323Z,44.48
2018-03-31T10:41:48.331Z,44.79
2018-03-31T10:42:48.354Z,44.77
2018-03-31T10:43:48.371Z,44.87
2018-03-31T10:44:48.392Z,44.01
2018-03-31T10:45:48.414Z,44.48
2018-03-31T10:46:48.441Z,44.79
2018-03-31T10:47:48.463Z,44.48
2018-03-31T10:48:48.481Z,44.29
2018-03-31T10:49:48.507Z,44.87
2018-03-31T10:50:48.518Z,44.96
2018-03-31T10:51:48.558Z,45.63
2018-03-31T10:52:48.571Z,45.75
2018-03-31T10:53:48.581Z,45.84
2018-03-31T10:54:48.608Z,45.72
2018-03-31T10:55:48.678Z,45.75
2018-03-31T10:56:48.648Z,45.08
2018-03-31T10:57:48.670Z,44.89
2018-03-31T10:58:48.686Z,44.96
2018-03-31T10:59:48.709Z,44.79
2018-03-31T11:00:48.728Z,44.51
2018-03-31T11:01:48.756Z,44.89
2018-03-31T11:02:48.772Z,43.26
2018-03-31T11:03:48.817Z,43.46
2018-03-31T11:04:48.821Z,43.26
2018-03-31T11:05:48.839Z,43.07
2018-03-31T11:06:48.858Z,43.93
2018-03-31T11:07:48.919Z,43.36
2018-03-31T11:08:48.892Z,44.89
2018-03-31T11:09:48.917Z,45.56
2018-03-31T11:10:48.941Z,45.08
2018-03-31T11:11:48.963Z,45.75
2018-03-31T11:12:49.011Z,45.39
2018-03-31T11:13:49.001Z,45.08
2018-03-31T11:14:49.045Z,44.89
2018-03-31T11:15:49.057Z,45.08
2018-03-31T11:16:49.074Z,45.08
2018-03-31T11:17:49.096Z,44.72
2018-03-31T11:18:49.117Z,45.01
2018-03-31T11:19:49.131Z,44.51
2018-03-31T11:20:49.146Z,43.93
2018-03-31T11:21:49.175Z,43.93
2018-03-31T11:22:49.204Z,43.57
2018-03-31T11:23:49.233Z,43.38
2018-03-31T11:24:49.255Z,43.38
2018-03-31T11:25:49.262Z,43.38
2018-03-31T11:26:49.280Z,44.12
2018-03-31T11:27:49.299Z,44.60
2018-03-31T11:28:49.317Z,44.70
2018-03-31T11:29:49.341Z,44.12
2018-03-31T11:30:49.367Z,44.89
2018-03-31T11:31:49.382Z,45.27
2018-03-31T11:32:49.405Z,46.13
2018-03-31T11:33:49.435Z,45.75
2018-03-31T11:34:49.450Z,45.56
2018-03-31T11:35:49.472Z,45.75
2018-03-31T11:36:49.492Z,45.56
2018-03-31T11:37:49.517Z,45.08
2018-03-31T11:38:49.534Z,44.70
2018-03-31T11:39:49.567Z,44.15
2018-03-31T11:40:49.588Z,44.05
2018-03-31T11:41:49.598Z,44.05
2018-03-31T11:42:49.614Z,43.79
2018-03-31T11:43:49.636Z,43.59
2018-03-31T11:44:49.691Z,44.55
2018-03-31T11:45:49.687Z,43.88
2018-03-31T11:46:49.718Z,43.98
2018-03-31T11:47:49.730Z,43.76
2018-03-31T11:48:49.758Z,44.91
2018-03-31T11:49:49.767Z,45.20
2018-03-31T11:50:49.789Z,42.81
2018-03-31T11:51:49.823Z,42.33
2018-03-31T11:52:49.837Z,42.04
2018-03-31T11:53:49.860Z,42.04
2018-03-31T11:54:49.879Z,41.95
2018-03-31T11:55:49.901Z,41.95
2018-03-31T11:56:49.919Z,41.47
2018-03-31T11:57:49.942Z,42.04
2018-03-31T11:58:49.960Z,42.24
2018-03-31T11:59:49.982Z,42.52
2018-03-31T12:00:50.051Z,42.71
2018-03-31T12:01:50.034Z,43.00
2018-03-31T12:02:50.045Z,42.44
2018-03-31T12:03:50.070Z,42.08
2018-03-31T12:04:50.096Z,41.97
2018-03-31T12:05:50.119Z,41.97
2018-03-31T12:06:50.147Z,41.32
2018-03-31T12:07:50.155Z,40.67
2018-03-31T12:08:50.181Z,40.95
2018-03-31T12:09:50.200Z,40.58
2018-03-31T12:10:50.223Z,40.48
2018-03-31T12:11:50.248Z,40.58
2018-03-31T12:12:50.262Z,39.50
2018-03-31T12:13:50.286Z,40.65
2018-03-31T12:14:50.310Z,40.36
2018-03-31T12:15:50.333Z,40.44
2018-03-31T12:16:50.353Z,40.82
2018-03-31T12:17:50.372Z,40.72
2018-03-31T12:18:50.408Z,39.96
2018-03-31T12:19:50.420Z,40.53
2018-03-31T12:20:50.449Z,39.98
2018-03-31T12:21:50.497Z,39.22
2018-03-31T12:22:50.491Z,38.83
2018-03-31T12:23:50.511Z,38.83
2018-03-31T12:24:50.534Z,38.26
2018-03-31T12:25:50.564Z,37.80
2018-03-31T12:26:50.592Z,37.63
2018-03-31T12:27:50.608Z,37.15
2018-03-31T12:28:50.621Z,36.88
2018-03-31T12:29:50.730Z,36.96
2018-03-31T12:30:50.692Z,37.63
2018-03-31T12:31:50.692Z,37.99
2018-03-31T12:32:50.710Z,39.23
2018-03-31T12:33:50.735Z,39.43
2018-03-31T12:34:50.761Z,39.40
2018-03-31T12:35:50.808Z,39.69
2018-03-31T12:36:50.814Z,39.81
2018-03-31T12:37:50.839Z,39.45
2018-03-31T12:38:50.858Z,38.76
2018-03-31T12:39:50.908Z,39.45
2018-03-31T12:40:50.912Z,38.30
2018-03-31T12:41:50.915Z,37.63
2018-03-31T12:42:50.941Z,37.93
2018-03-31T12:43:50.962Z,37.95
2018-03-31T12:44:51.021Z,37.32
2018-03-31T12:45:51.024Z,36.74
2018-03-31T12:46:51.036Z,35.61
2018-03-31T12:47:51.065Z,35.30
2018-03-31T12:48:51.100Z,36.04
2018-03-31T12:49:51.112Z,36.05
2018-03-31T12:50:51.135Z,37.01
2018-03-31T12:51:51.157Z,36.07
2018-03-31T12:52:51.182Z,34.59